Archival Weather

Chicago O'Hare International

Chicago, Illinois (KORD)

Report from: Friday, December 23, 2022 2:06 AM CST
Current time: Friday, June 21, 2024 3:35 AM CDT

Current weather – Weather history – Daily summaries
Weather forecast

Present weatherBlowing snow, mist
Temperature-22.2°C (-8.0°F)
Wind chill-36.0°C (-32.8°F)
Dew point-27.2°C (-17.0°F)
Winds 18 kts (9.3 m/s, 20.7 mph) West (270°)
Wind gusts 28 kts (14.4 m/s, 32.2 mph)
Peak wind 29 kts (14.9 m/s, 33.4 mph) West (280°) at 07:56
Visibility4 mi. (6.4 km)
Clouds Ceiling: Overcast 1,800 ft. (549 m)
Altimeter29.82 in.Hg (1010 mB)
Relative humidity64 %
Density altitude-4,654 ft. (-1,418 m)
Remarks System requires maintenance
Automated weather observing station with precipitation discriminator
Flight conditions Marginal Visual Meteorological Conditions
Raw dataKORD 230806Z 27018G28KT 4SM BLSN BR OVC018 M22/M27 A2982 RMK AO2 PK WND 28029/0756 T12221272 $
An error has occurred. This application may no longer respond until reloaded. Reload 🗙